createdAt,value
2023-06-11T03:01:38.026Z,100.00
2023-06-11T03:04:05.391Z,100.00
2023-06-11T03:06:32.955Z,100.00
2023-06-11T03:08:59.959Z,100.00
2023-06-11T03:11:27.250Z,100.00
2023-06-11T03:13:53.771Z,100.00
2023-06-11T03:16:20.447Z,100.00
2023-06-11T03:18:47.024Z,100.00
2023-06-11T03:21:13.611Z,100.00
2023-06-11T03:23:40.207Z,100.00
2023-06-11T03:26:06.771Z,100.00
2023-06-11T03:28:33.334Z,100.00
2023-06-11T03:30:59.888Z,100.00
2023-06-11T03:33:26.415Z,100.00
2023-06-11T03:35:52.960Z,100.00
2023-06-11T03:38:19.497Z,100.00
2023-06-11T03:40:46.129Z,100.00
2023-06-11T03:43:12.705Z,100.00
2023-06-11T03:45:39.244Z,100.00
2023-06-11T03:48:07.003Z,100.00
2023-06-11T03:50:33.578Z,100.00
2023-06-11T03:53:00.293Z,100.00
2023-06-11T03:55:27.211Z,100.00
2023-06-11T03:57:53.781Z,100.00
2023-06-11T04:00:20.414Z,100.00
2023-06-11T04:02:46.985Z,100.00
2023-06-11T04:05:13.726Z,100.00
2023-06-11T04:07:41.223Z,100.00
2023-06-11T04:10:08.996Z,100.00
2023-06-11T04:12:35.955Z,100.00
2023-06-11T04:15:02.431Z,100.00
2023-06-11T04:17:29.106Z,100.00
2023-06-11T04:19:55.732Z,100.00
2023-06-11T04:22:22.220Z,100.00
2023-06-11T04:24:49.032Z,100.00
2023-06-11T04:27:15.645Z,100.00
2023-06-11T04:29:45.931Z,100.00
2023-06-11T04:32:12.530Z,100.00
2023-06-11T04:34:40.003Z,99.27
2023-06-11T04:37:09.750Z,94.28
2023-06-11T04:39:36.833Z,91.50
2023-06-11T04:42:03.476Z,87.51
2023-06-11T04:44:30.537Z,85.96
2023-06-11T04:46:59.343Z,84.34
2023-06-11T04:49:25.992Z,81.53
2023-06-11T04:51:55.462Z,76.87
2023-06-11T04:54:22.627Z,75.04
2023-06-11T04:56:50.008Z,72.93
2023-06-11T04:59:17.099Z,71.37
2023-06-11T05:01:48.149Z,67.28
2023-06-11T05:04:15.794Z,66.51
2023-06-11T05:06:49.432Z,64.06
2023-06-11T05:09:17.374Z,64.40
2023-06-11T05:11:45.211Z,61.11
2023-06-11T05:14:12.593Z,58.83
2023-06-11T05:16:40.431Z,59.96
2023-06-11T05:19:07.427Z,57.77
2023-06-11T05:21:34.144Z,56.06
2023-06-11T05:24:08.148Z,54.62
2023-06-11T05:26:36.529Z,54.75
2023-06-11T05:29:04.696Z,54.05
2023-06-11T05:31:31.990Z,51.08
2023-06-11T05:33:58.998Z,51.01
2023-06-11T05:36:25.601Z,52.57
2023-06-11T05:38:52.902Z,51.04
2023-06-11T05:41:20.586Z,51.93
2023-06-11T05:43:47.932Z,50.77
2023-06-11T05:46:15.489Z,50.12
2023-06-11T05:48:43.256Z,50.62
2023-06-11T05:51:11.392Z,51.59
2023-06-11T05:53:38.089Z,52.55
2023-06-11T05:56:06.245Z,52.84
2023-06-11T05:58:34.424Z,51.47
2023-06-11T06:01:05.291Z,52.25
2023-06-11T06:03:33.251Z,51.06
2023-06-11T06:06:02.497Z,53.00
2023-06-11T06:08:30.812Z,53.00
2023-06-11T06:10:57.980Z,51.58
2023-06-11T06:13:25.452Z,50.90
2023-06-11T06:15:52.343Z,50.03
2023-06-11T06:18:19.030Z,52.41
2023-06-11T06:20:45.913Z,49.56
2023-06-11T06:23:12.440Z,47.90
2023-06-11T06:25:39.522Z,48.33
2023-06-11T06:28:07.497Z,47.94
2023-06-11T06:30:34.294Z,51.50
2023-06-11T06:33:01.600Z,49.46
2023-06-11T06:35:31.023Z,49.58
2023-06-11T06:37:58.622Z,47.79
2023-06-11T06:40:25.279Z,47.25
2023-06-11T06:42:52.236Z,47.46
2023-06-11T06:45:18.969Z,46.18
2023-06-11T06:55:22.600Z,48.55
2023-06-11T06:57:52.433Z,49.20
2023-06-11T07:04:19.735Z,46.69
2023-06-11T07:10:37.592Z,46.26
2023-06-11T07:13:04.204Z,45.67
2023-06-11T07:15:36.088Z,45.79
2023-06-11T07:25:32.203Z,49.49
2023-06-11T07:28:05.049Z,50.80
2023-06-11T07:30:33.478Z,53.68
2023-06-11T07:33:03.382Z,55.04
2023-06-11T07:35:30.709Z,53.02
2023-06-11T07:37:58.077Z,51.68
2023-06-11T07:40:24.849Z,56.87
2023-06-11T07:42:51.356Z,53.97
2023-06-11T07:45:51.933Z,53.52
2023-06-11T07:48:18.468Z,49.67
2023-06-11T08:06:05.876Z,48.01
2023-06-11T08:08:32.531Z,50.38
2023-06-11T08:11:38.508Z,49.37
2023-06-11T08:17:10.686Z,48.28
2023-06-11T08:30:17.333Z,49.19
2023-06-11T08:32:43.949Z,52.83
2023-06-11T08:35:10.674Z,53.66
2023-06-11T08:37:37.224Z,56.17
2023-06-11T08:40:51.456Z,52.63
2023-06-11T08:43:42.985Z,49.36
2023-06-11T09:16:50.276Z,46.82
2023-06-11T09:34:41.580Z,46.53
2023-06-11T10:11:12.622Z,42.19
2023-06-11T10:17:29.361Z,45.79
2023-06-11T10:20:54.814Z,45.56
2023-06-11T10:38:39.682Z,41.17
2023-06-11T10:48:51.221Z,42.44
2023-06-11T10:51:18.487Z,43.77
2023-06-11T11:01:26.541Z,44.35
2023-06-11T11:11:29.985Z,47.01
2023-06-11T11:18:25.435Z,42.98
2023-06-11T11:20:56.146Z,45.68
2023-06-11T11:27:06.645Z,43.68
2023-06-11T11:29:39.717Z,44.37
2023-06-11T11:32:08.834Z,46.07
2023-06-11T11:46:39.357Z,41.93
2023-06-11T11:49:56.639Z,42.57
2023-06-11T11:52:24.671Z,43.90
2023-06-11T12:06:19.925Z,43.66
2023-06-11T12:08:47.198Z,44.52
2023-06-11T12:21:27.862Z,43.66
2023-06-11T12:43:11.974Z,42.37
2023-06-11T12:45:39.097Z,39.94
2023-06-11T12:48:06.608Z,41.55
2023-06-11T13:13:23.301Z,40.98
2023-06-11T13:16:06.188Z,39.47
2023-06-11T13:18:48.151Z,40.56
2023-06-11T13:21:37.560Z,40.24
2023-06-11T13:24:34.789Z,39.84
2023-06-11T13:27:01.293Z,42.83
2023-06-11T13:29:51.137Z,41.60
2023-06-11T13:36:08.143Z,40.92
2023-06-11T13:42:39.843Z,40.65
2023-06-11T13:45:09.566Z,40.00
2023-06-11T13:47:36.512Z,41.34
2023-06-11T13:50:03.264Z,44.94
2023-06-11T14:12:09.238Z,38.29
2023-06-11T14:14:44.259Z,40.30
2023-06-11T14:17:20.115Z,40.20
2023-06-11T14:19:52.079Z,38.09
2023-06-11T14:22:26.845Z,38.72
2023-06-11T14:25:04.986Z,37.58
2023-06-11T14:28:04.579Z,36.73
2023-06-11T14:30:39.537Z,40.26
2023-06-11T14:33:06.802Z,39.61
2023-06-11T14:35:33.393Z,40.13
2023-06-11T14:38:04.189Z,40.73
2023-06-11T14:41:04.713Z,40.35
2023-06-11T14:47:38.145Z,39.70
2023-06-11T14:50:06.157Z,40.55
2023-06-11T14:52:32.860Z,39.97
2023-06-11T14:54:59.663Z,43.12
2023-06-11T14:57:26.728Z,41.77
2023-06-11T14:59:53.460Z,42.68
2023-06-11T15:02:20.052Z,42.88
2023-06-11T15:04:46.817Z,42.57
2023-06-11T15:14:53.238Z,41.47
2023-06-11T15:17:23.323Z,40.27
2023-06-11T15:19:58.995Z,40.88
2023-06-11T15:22:28.934Z,39.89
2023-06-11T15:24:56.801Z,39.81
2023-06-11T15:27:24.808Z,40.13
2023-06-11T15:29:53.383Z,39.86
2023-06-11T15:32:21.573Z,38.80
2023-06-11T15:34:49.199Z,39.84
2023-06-11T15:37:17.430Z,38.64
2023-06-11T15:39:55.050Z,38.33
2023-06-11T15:42:22.814Z,39.00
2023-06-11T15:44:49.796Z,39.45
2023-06-11T15:47:18.442Z,39.65
2023-06-11T15:49:45.841Z,39.11
2023-06-11T15:52:12.936Z,40.77
2023-06-11T15:54:39.751Z,39.45
2023-06-11T15:57:09.834Z,39.52
2023-06-11T15:59:37.154Z,39.21
2023-06-11T16:02:04.194Z,38.94
2023-06-11T16:04:34.571Z,39.24
2023-06-11T16:07:01.841Z,39.82
2023-06-11T16:09:28.993Z,40.20
2023-06-11T16:11:55.897Z,40.13
2023-06-11T16:14:22.467Z,39.73
2023-06-11T16:17:09.559Z,41.00
2023-06-11T17:09:14.784Z,44.13
2023-06-11T17:11:41.856Z,43.97
2023-06-11T17:14:08.546Z,46.08
2023-06-11T17:16:40.138Z,45.21
2023-06-11T17:19:09.705Z,44.96
2023-06-11T17:21:52.975Z,45.05
2023-06-11T17:24:20.786Z,46.24
2023-06-11T17:26:48.730Z,47.34
2023-06-11T17:29:17.286Z,46.44
2023-06-11T17:31:45.690Z,46.49
2023-06-11T17:34:12.460Z,46.79
2023-06-11T17:36:40.503Z,47.40
2023-06-11T17:39:07.221Z,46.51
2023-06-11T17:41:33.973Z,47.71
2023-06-11T17:44:00.581Z,49.19
2023-06-11T17:46:27.450Z,49.33
2023-06-11T17:48:54.890Z,49.71
2023-06-11T17:51:22.275Z,48.22
2023-06-11T17:53:51.200Z,48.73
2023-06-11T17:56:18.124Z,48.94
2023-06-11T17:58:44.923Z,50.87
2023-06-11T18:01:11.592Z,49.20
2023-06-11T18:03:38.310Z,49.34
2023-06-11T18:06:05.079Z,49.41
2023-06-11T18:08:31.681Z,49.70
2023-06-11T18:10:58.383Z,50.12
2023-06-11T18:13:25.056Z,49.78
2023-06-11T18:15:51.732Z,50.06
2023-06-11T18:18:18.467Z,50.39
2023-06-11T18:20:46.034Z,51.72
2023-06-11T18:23:12.739Z,51.59
2023-06-11T18:25:39.314Z,52.37
2023-06-11T18:28:05.909Z,53.43
2023-06-11T18:30:32.439Z,54.53
2023-06-11T18:32:59.065Z,53.59
2023-06-11T18:35:25.688Z,54.22
2023-06-11T18:37:52.267Z,54.34
2023-06-11T18:40:18.761Z,54.56
2023-06-11T18:42:45.294Z,54.83
2023-06-11T18:45:11.973Z,55.31
2023-06-11T18:47:40.223Z,55.95
2023-06-11T18:50:11.077Z,56.93
2023-06-11T18:52:38.215Z,57.10
2023-06-11T18:55:04.937Z,56.88
2023-06-11T18:57:31.430Z,57.21
2023-06-11T18:59:58.751Z,58.38
2023-06-11T19:02:25.372Z,58.88
2023-06-11T19:04:51.873Z,59.15
2023-06-11T19:07:18.461Z,60.07
2023-06-11T19:09:44.944Z,60.87
2023-06-11T19:12:12.292Z,61.37
2023-06-11T19:14:38.855Z,61.44
2023-06-11T19:17:05.660Z,62.73
2023-06-11T19:19:32.262Z,63.07
2023-06-11T19:21:58.936Z,63.55
2023-06-11T19:24:25.761Z,64.20
2023-06-11T19:26:52.300Z,64.92
2023-06-11T19:29:19.860Z,65.09
2023-06-11T19:31:47.427Z,65.59
2023-06-11T19:34:15.100Z,65.97
2023-06-11T19:36:43.460Z,66.25
2023-06-11T19:39:09.942Z,67.27
2023-06-11T19:41:37.025Z,67.29
2023-06-11T19:44:04.123Z,68.22
2023-06-11T19:46:35.505Z,69.02
2023-06-11T19:49:03.488Z,70.27
2023-06-11T19:51:30.077Z,70.41
2023-06-11T19:53:58.010Z,71.17
2023-06-11T19:56:25.084Z,71.66
2023-06-11T19:58:51.817Z,72.40
2023-06-11T20:01:19.160Z,72.64
2023-06-11T20:03:45.868Z,73.04
2023-06-11T20:06:13.300Z,73.76
2023-06-11T20:08:40.030Z,74.12
2023-06-11T20:11:09.809Z,74.80
2023-06-11T20:13:37.191Z,75.77
2023-06-11T20:16:04.411Z,76.48
2023-06-11T20:18:33.838Z,77.31
2023-06-11T20:21:00.305Z,78.02
2023-06-11T20:23:26.836Z,78.17
2023-06-11T20:25:53.454Z,78.17
2023-06-11T20:28:21.066Z,77.94
2023-06-11T20:30:47.552Z,77.78
2023-06-11T20:33:14.172Z,76.88
2023-06-11T20:35:40.782Z,77.44
2023-06-11T20:38:07.303Z,78.01
2023-06-11T20:40:33.833Z,78.35
2023-06-11T20:43:00.355Z,78.91
2023-06-11T20:45:26.830Z,78.50
2023-06-11T20:47:56.132Z,79.54
2023-06-11T20:50:23.741Z,80.51
2023-06-11T20:52:50.922Z,80.57
2023-06-11T20:55:17.728Z,81.62
2023-06-11T20:57:44.260Z,81.84
2023-06-11T21:00:11.366Z,82.25
2023-06-11T21:02:38.063Z,82.91
2023-06-11T21:05:04.829Z,83.35
2023-06-11T21:07:31.505Z,83.66
2023-06-11T21:09:58.055Z,84.32
2023-06-11T21:12:26.120Z,84.12
2023-06-11T21:14:52.690Z,84.74
2023-06-11T21:17:19.237Z,84.38
2023-06-11T21:19:45.741Z,84.80
2023-06-11T21:22:12.271Z,85.27
2023-06-11T21:24:38.766Z,85.43
2023-06-11T21:27:08.446Z,85.94
2023-06-11T21:29:35.028Z,86.79
